sensor_id;sensor_type;location;lat;lon;timestamp;pressure;altitude;pressure_sealevel;temperature;humidity
35649;BME280;21768;48.562;13.414;2022-09-20T00:00:42;97590.94;;;11.23;75.00
35649;BME280;21768;48.562;13.414;2022-09-20T00:03:09;97583.16;;;11.20;75.39
35649;BME280;21768;48.562;13.414;2022-09-20T00:05:36;97588.09;;;11.18;74.98
35649;BME280;21768;48.562;13.414;2022-09-20T00:08:03;97593.91;;;11.17;74.81
35649;BME280;21768;48.562;13.414;2022-09-20T00:10:29;97591.50;;;11.19;75.24
35649;BME280;21768;48.562;13.414;2022-09-20T00:12:56;97586.56;;;11.20;75.58
35649;BME280;21768;48.562;13.414;2022-09-20T00:15:22;97591.03;;;11.24;75.71
35649;BME280;21768;48.562;13.414;2022-09-20T00:17:47;97592.00;;;11.27;75.67
35649;BME280;21768;48.562;13.414;2022-09-20T00:20:12;97584.44;;;11.27;75.89
35649;BME280;21768;48.562;13.414;2022-09-20T00:22:38;97589.47;;;11.27;75.73
35649;BME280;21768;48.562;13.414;2022-09-20T00:25:04;97587.94;;;11.29;75.84
35649;BME280;21768;48.562;13.414;2022-09-20T00:27:30;97584.53;;;11.28;75.77
35649;BME280;21768;48.562;13.414;2022-09-20T00:29:55;97584.44;;;11.27;75.88
35649;BME280;21768;48.562;13.414;2022-09-20T00:32:22;97597.16;;;11.28;75.86
35649;BME280;21768;48.562;13.414;2022-09-20T00:34:48;97590.56;;;11.30;75.62
35649;BME280;21768;48.562;13.414;2022-09-20T00:37:41;97594.25;;;11.35;75.38
35649;BME280;21768;48.562;13.414;2022-09-20T00:40:11;97591.84;;;11.37;75.39
35649;BME280;21768;48.562;13.414;2022-09-20T00:42:37;97585.72;;;11.33;75.48
35649;BME280;21768;48.562;13.414;2022-09-20T00:45:23;97576.06;;;11.28;75.78
35649;BME280;21768;48.562;13.414;2022-09-20T00:47:51;97583.56;;;11.26;75.46
35649;BME280;21768;48.562;13.414;2022-09-20T00:55:41;97580.81;;;11.10;75.95
35649;BME280;21768;48.562;13.414;2022-09-20T00:58:10;97591.69;;;11.09;75.72
35649;BME280;21768;48.562;13.414;2022-09-20T01:00:36;97579.06;;;11.09;76.07
35649;BME280;21768;48.562;13.414;2022-09-20T01:03:04;97578.97;;;11.07;76.19
35649;BME280;21768;48.562;13.414;2022-09-20T01:05:32;97581.69;;;11.10;75.78
35649;BME280;21768;48.562;13.414;2022-09-20T01:07:57;97580.16;;;11.12;75.81
35649;BME280;21768;48.562;13.414;2022-09-20T01:10:23;97592.84;;;11.14;75.91
35649;BME280;21768;48.562;13.414;2022-09-20T01:12:50;97583.81;;;11.17;76.13
35649;BME280;21768;48.562;13.414;2022-09-20T01:15:16;97585.00;;;11.22;75.86
35649;BME280;21768;48.562;13.414;2022-09-20T01:17:48;97583.16;;;11.20;75.75
35649;BME280;21768;48.562;13.414;2022-09-20T01:20:17;97572.16;;;11.19;75.57
35649;BME280;21768;48.562;13.414;2022-09-20T01:25:40;97571.00;;;11.14;75.96
35649;BME280;21768;48.562;13.414;2022-09-20T01:28:12;97577.03;;;11.16;76.18
35649;BME280;21768;48.562;13.414;2022-09-20T01:30:42;97566.25;;;11.19;76.36
35649;BME280;21768;48.562;13.414;2022-09-20T01:35:46;97571.81;;;11.27;76.04
35649;BME280;21768;48.562;13.414;2022-09-20T01:38:33;97569.19;;;11.25;76.05
35649;BME280;21768;48.562;13.414;2022-09-20T01:41:11;97562.69;;;11.29;75.98
35649;BME280;21768;48.562;13.414;2022-09-20T01:43:59;97567.06;;;11.31;76.20
35649;BME280;21768;48.562;13.414;2022-09-20T01:46:31;97563.84;;;11.34;76.07
35649;BME280;21768;48.562;13.414;2022-09-20T01:52:12;97561.53;;;11.37;76.60
35649;BME280;21768;48.562;13.414;2022-09-20T01:57:40;97560.16;;;11.42;76.40
35649;BME280;21768;48.562;13.414;2022-09-20T02:00:22;97561.69;;;11.40;76.48
35649;BME280;21768;48.562;13.414;2022-09-20T02:11:13;97551.69;;;11.41;76.65
35649;BME280;21768;48.562;13.414;2022-09-20T02:35:41;97547.31;;;11.39;76.27
35649;BME280;21768;48.562;13.414;2022-09-20T02:48:21;97556.38;;;11.48;76.63
35649;BME280;21768;48.562;13.414;2022-09-20T03:01:42;97568.81;;;11.45;75.95
35649;BME280;21768;48.562;13.414;2022-09-20T03:09:37;97575.31;;;11.42;76.01
35649;BME280;21768;48.562;13.414;2022-09-20T03:18:17;97580.25;;;11.27;75.83
35649;BME280;21768;48.562;13.414;2022-09-20T03:21:06;97573.16;;;11.21;76.05
35649;BME280;21768;48.562;13.414;2022-09-20T03:23:58;97579.53;;;11.16;76.00
35649;BME280;21768;48.562;13.414;2022-09-20T03:29:24;97568.97;;;11.22;76.25
35649;BME280;21768;48.562;13.414;2022-09-20T03:32:13;97570.16;;;11.27;75.98
35649;BME280;21768;48.562;13.414;2022-09-20T03:34:48;97573.44;;;11.26;76.09
35649;BME280;21768;48.562;13.414;2022-09-20T03:37:36;97569.66;;;11.19;76.26
35649;BME280;21768;48.562;13.414;2022-09-20T03:43:33;97566.91;;;11.16;76.48
35649;BME280;21768;48.562;13.414;2022-09-20T03:46:23;97574.91;;;11.22;76.55
35649;BME280;21768;48.562;13.414;2022-09-20T03:54:40;97569.44;;;11.03;76.41
35649;BME280;21768;48.562;13.414;2022-09-20T04:00:18;97582.06;;;11.16;76.68
35649;BME280;21768;48.562;13.414;2022-09-20T04:08:23;97575.22;;;11.27;76.69
35649;BME280;21768;48.562;13.414;2022-09-20T04:11:03;97583.09;;;11.32;76.32
35649;BME280;21768;48.562;13.414;2022-09-20T04:13:38;97584.63;;;11.30;76.62
35649;BME280;21768;48.562;13.414;2022-09-20T04:21:31;97584.63;;;11.30;76.91
35649;BME280;21768;48.562;13.414;2022-09-20T04:26:43;97592.56;;;11.22;76.76
35649;BME280;21768;48.562;13.414;2022-09-20T04:29:35;97592.69;;;11.24;76.86
35649;BME280;21768;48.562;13.414;2022-09-20T04:34:59;97603.28;;;11.32;76.52
35649;BME280;21768;48.562;13.414;2022-09-20T04:37:45;97604.16;;;11.32;76.45
35649;BME280;21768;48.562;13.414;2022-09-20T04:43:16;97601.34;;;11.28;76.51
35649;BME280;21768;48.562;13.414;2022-09-20T04:46:26;97594.06;;;11.32;76.46
35649;BME280;21768;48.562;13.414;2022-09-20T04:49:33;97606.22;;;11.38;76.44
35649;BME280;21768;48.562;13.414;2022-09-20T05:00:22;97615.16;;;11.33;76.44
35649;BME280;21768;48.562;13.414;2022-09-20T05:11:27;97619.53;;;11.35;76.14
35649;BME280;21768;48.562;13.414;2022-09-20T05:20:06;97615.72;;;11.42;76.09
35649;BME280;21768;48.562;13.414;2022-09-20T05:28:24;97620.50;;;11.37;75.91
35649;BME280;21768;48.562;13.414;2022-09-20T05:30:56;97621.94;;;11.34;75.92
35649;BME280;21768;48.562;13.414;2022-09-20T05:33:45;97623.19;;;11.40;75.98
35649;BME280;21768;48.562;13.414;2022-09-20T05:39:34;97624.06;;;11.41;76.08
35649;BME280;21768;48.562;13.414;2022-09-20T05:42:13;97628.47;;;11.43;75.87
35649;BME280;21768;48.562;13.414;2022-09-20T05:44:54;97627.97;;;11.49;76.00
35649;BME280;21768;48.562;13.414;2022-09-20T05:56:01;97635.09;;;11.68;75.64
35649;BME280;21768;48.562;13.414;2022-09-20T05:58:52;97636.16;;;11.71;75.59
35649;BME280;21768;48.562;13.414;2022-09-20T06:01:30;97635.28;;;11.71;75.27
35649;BME280;21768;48.562;13.414;2022-09-20T06:04:18;97638.69;;;11.71;75.32
35649;BME280;21768;48.562;13.414;2022-09-20T06:09:36;97643.19;;;11.62;75.02
35649;BME280;21768;48.562;13.414;2022-09-20T06:12:23;97643.97;;;11.61;75.23
35649;BME280;21768;48.562;13.414;2022-09-20T06:14:59;97646.84;;;11.54;75.17
35649;BME280;21768;48.562;13.414;2022-09-20T06:22:50;97652.84;;;11.43;75.11
35649;BME280;21768;48.562;13.414;2022-09-20T06:25:30;97652.47;;;11.37;75.39
35649;BME280;21768;48.562;13.414;2022-09-20T06:28:20;97657.69;;;11.40;75.54
35649;BME280;21768;48.562;13.414;2022-09-20T06:30:48;97647.59;;;11.40;75.70
35649;BME280;21768;48.562;13.414;2022-09-20T06:33:21;97652.47;;;11.37;75.83
35649;BME280;21768;48.562;13.414;2022-09-20T06:35:49;97649.31;;;11.28;75.79
35649;BME280;21768;48.562;13.414;2022-09-20T06:38:37;97641.53;;;11.24;75.43
35649;BME280;21768;48.562;13.414;2022-09-20T06:41:26;97644.84;;;11.23;75.14
35649;BME280;21768;48.562;13.414;2022-09-20T06:43:55;97642.53;;;11.27;74.94
35649;BME280;21768;48.562;13.414;2022-09-20T06:46:27;97648.00;;;11.33;75.30
35649;BME280;21768;48.562;13.414;2022-09-20T06:48:54;97654.22;;;11.38;75.37
35649;BME280;21768;48.562;13.414;2022-09-20T06:51:20;97653.81;;;11.45;75.26
35649;BME280;21768;48.562;13.414;2022-09-20T06:53:47;97666.09;;;11.52;75.28
35649;BME280;21768;48.562;13.414;2022-09-20T06:56:32;97653.28;;;11.62;75.43
35649;BME280;21768;48.562;13.414;2022-09-20T06:59:04;97653.75;;;11.70;75.52
35649;BME280;21768;48.562;13.414;2022-09-20T07:01:32;97659.22;;;11.76;75.41
35649;BME280;21768;48.562;13.414;2022-09-20T07:03:58;97654.59;;;11.82;75.35
35649;BME280;21768;48.562;13.414;2022-09-20T07:06:23;97650.09;;;11.91;75.40
35649;BME280;21768;48.562;13.414;2022-09-20T07:08:48;97654.59;;;12.08;74.57
35649;BME280;21768;48.562;13.414;2022-09-20T07:11:15;97669.25;;;12.14;73.90
35649;BME280;21768;48.562;13.414;2022-09-20T07:13:42;97666.16;;;12.18;73.70
35649;BME280;21768;48.562;13.414;2022-09-20T07:16:11;97661.97;;;12.18;74.16
35649;BME280;21768;48.562;13.414;2022-09-20T07:18:38;97674.50;;;12.17;73.97
35649;BME280;21768;48.562;13.414;2022-09-20T07:21:05;97660.59;;;12.23;73.99
35649;BME280;21768;48.562;13.414;2022-09-20T07:23:31;97668.88;;;12.34;73.87
35649;BME280;21768;48.562;13.414;2022-09-20T07:25:57;97678.13;;;12.34;72.58
35649;BME280;21768;48.562;13.414;2022-09-20T07:28:26;97676.06;;;12.15;73.55
35649;BME280;21768;48.562;13.414;2022-09-20T07:30:52;97683.06;;;12.19;73.54
35649;BME280;21768;48.562;13.414;2022-09-20T07:33:18;97685.03;;;12.10;72.91
35649;BME280;21768;48.562;13.414;2022-09-20T07:35:48;97689.13;;;12.08;73.87
35649;BME280;21768;48.562;13.414;2022-09-20T07:38:14;97684.53;;;12.15;74.05
35649;BME280;21768;48.562;13.414;2022-09-20T07:40:42;97686.09;;;12.26;73.13
35649;BME280;21768;48.562;13.414;2022-09-20T07:43:07;97686.16;;;12.41;72.54
35649;BME280;21768;48.562;13.414;2022-09-20T07:45:35;97695.00;;;12.48;72.77
35649;BME280;21768;48.562;13.414;2022-09-20T07:48:05;97692.00;;;12.53;72.76
35649;BME280;21768;48.562;13.414;2022-09-20T07:50:32;97691.22;;;12.41;72.66
35649;BME280;21768;48.562;13.414;2022-09-20T07:52:58;97686.84;;;12.39;73.23
35649;BME280;21768;48.562;13.414;2022-09-20T07:55:23;97693.84;;;12.43;73.04
35649;BME280;21768;48.562;13.414;2022-09-20T07:57:49;97686.50;;;12.74;72.81
35649;BME280;21768;48.562;13.414;2022-09-20T08:00:16;97683.38;;;13.06;70.95
35649;BME280;21768;48.562;13.414;2022-09-20T08:02:41;97688.22;;;13.16;71.07
35649;BME280;21768;48.562;13.414;2022-09-20T08:05:07;97686.56;;;13.16;71.18
35649;BME280;21768;48.562;13.414;2022-09-20T08:07:32;97695.59;;;13.26;70.39
35649;BME280;21768;48.562;13.414;2022-09-20T08:09:58;97684.03;;;13.59;70.88
35649;BME280;21768;48.562;13.414;2022-09-20T08:12:24;97687.41;;;13.89;69.12
35649;BME280;21768;48.562;13.414;2022-09-20T08:14:50;97680.94;;;13.94;68.65
35649;BME280;21768;48.562;13.414;2022-09-20T08:17:16;97679.66;;;14.17;68.73
35649;BME280;21768;48.562;13.414;2022-09-20T08:19:43;97688.16;;;14.32;69.11
35649;BME280;21768;48.562;13.414;2022-09-20T08:22:08;97682.59;;;14.39;67.75
35649;BME280;21768;48.562;13.414;2022-09-20T08:24:36;97687.19;;;14.30;68.51
35649;BME280;21768;48.562;13.414;2022-09-20T08:27:01;97681.16;;;14.28;68.43
35649;BME280;21768;48.562;13.414;2022-09-20T08:29:27;97684.34;;;14.40;68.01
35649;BME280;21768;48.562;13.414;2022-09-20T08:31:52;97688.91;;;14.46;67.32
35649;BME280;21768;48.562;13.414;2022-09-20T08:34:22;97684.13;;;14.21;66.57
35649;BME280;21768;48.562;13.414;2022-09-20T08:36:48;97685.47;;;14.00;67.27
35649;BME280;21768;48.562;13.414;2022-09-20T08:39:16;97684.25;;;13.93;68.41
35649;BME280;21768;48.562;13.414;2022-09-20T08:41:45;97679.09;;;14.06;68.94
35649;BME280;21768;48.562;13.414;2022-09-20T08:44:33;97682.28;;;14.33;68.65
35649;BME280;21768;48.562;13.414;2022-09-20T08:47:04;97684.34;;;14.40;67.68
35649;BME280;21768;48.562;13.414;2022-09-20T08:49:31;97680.16;;;14.41;67.67
35649;BME280;21768;48.562;13.414;2022-09-20T08:51:58;97672.97;;;15.62;65.68
35649;BME280;21768;48.562;13.414;2022-09-20T08:54:25;97679.94;;;17.10;61.37
35649;BME280;21768;48.562;13.414;2022-09-20T08:56:51;97675.53;;;18.05;58.86
35649;BME280;21768;48.562;13.414;2022-09-20T08:59:19;97676.75;;;18.15;57.56
35649;BME280;21768;48.562;13.414;2022-09-20T09:01:47;97671.06;;;17.99;55.29
35649;BME280;21768;48.562;13.414;2022-09-20T09:04:18;97675.72;;;17.49;56.38
35649;BME280;21768;48.562;13.414;2022-09-20T09:06:45;97673.97;;;17.67;56.48
35649;BME280;21768;48.562;13.414;2022-09-20T09:09:17;97669.91;;;18.14;55.28
35649;BME280;21768;48.562;13.414;2022-09-20T09:11:44;97667.75;;;18.90;51.69
35649;BME280;21768;48.562;13.414;2022-09-20T09:14:15;97667.75;;;18.90;50.33
35649;BME280;21768;48.562;13.414;2022-09-20T09:17:08;97671.13;;;17.61;54.06
35649;BME280;21768;48.562;13.414;2022-09-20T09:22:09;97666.28;;;18.29;51.35
35649;BME280;21768;48.562;13.414;2022-09-20T09:24:34;97660.63;;;17.15;55.55
35649;BME280;21768;48.562;13.414;2022-09-20T09:27:13;97660.72;;;16.42;56.52
35649;BME280;21768;48.562;13.414;2022-09-20T09:29:52;97670.34;;;15.94;58.75
35649;BME280;21768;48.562;13.414;2022-09-20T09:32:27;97676.47;;;15.64;59.06
35649;BME280;21768;48.562;13.414;2022-09-20T09:34:54;97672.53;;;15.37;59.46
35649;BME280;21768;48.562;13.414;2022-09-20T09:37:30;97675.94;;;15.37;59.79
35649;BME280;21768;48.562;13.414;2022-09-20T09:42:30;97675.31;;;16.27;58.76
35649;BME280;21768;48.562;13.414;2022-09-20T09:45:11;97678.88;;;16.30;57.33
35649;BME280;21768;48.562;13.414;2022-09-20T09:47:37;97673.50;;;16.07;57.47
35649;BME280;21768;48.562;13.414;2022-09-20T09:50:02;97673.47;;;15.55;56.72
35649;BME280;21768;48.562;13.414;2022-09-20T09:52:28;97680.16;;;14.88;57.68
35649;BME280;21768;48.562;13.414;2022-09-20T09:54:58;97680.69;;;14.35;59.63
35649;BME280;21768;48.562;13.414;2022-09-20T10:00:13;97684.78;;;14.02;60.30
35649;BME280;21768;48.562;13.414;2022-09-20T10:03:09;97670.00;;;14.10;59.92
35649;BME280;21768;48.562;13.414;2022-09-20T10:05:50;97675.09;;;14.41;60.49
35649;BME280;21768;48.562;13.414;2022-09-20T10:11:36;97660.75;;;16.61;56.41
35649;BME280;21768;48.562;13.414;2022-09-20T10:14:35;97654.09;;;18.89;51.44
35649;BME280;21768;48.562;13.414;2022-09-20T10:20:19;97654.59;;;18.79;52.07
35649;BME280;21768;48.562;13.414;2022-09-20T10:22:53;97649.44;;;19.01;50.46
35649;BME280;21768;48.562;13.414;2022-09-20T10:28:27;97633.50;;;20.10;50.96
35649;BME280;21768;48.562;13.414;2022-09-20T10:31:23;97636.75;;;21.50;47.15
35649;BME280;21768;48.562;13.414;2022-09-20T10:36:45;97628.72;;;21.37;47.01
35649;BME280;21768;48.562;13.414;2022-09-20T10:39:35;97628.06;;;22.51;46.24
35649;BME280;21768;48.562;13.414;2022-09-20T11:09:10;97648.00;;;22.61;41.82
35649;BME280;21768;48.562;13.414;2022-09-20T11:11:42;97651.28;;;22.93;40.81
35649;BME280;21768;48.562;13.414;2022-09-20T11:14:17;97649.13;;;21.66;43.61
35649;BME280;21768;48.562;13.414;2022-09-20T11:19:27;97651.09;;;19.99;45.74
35649;BME280;21768;48.562;13.414;2022-09-20T11:22:06;97647.00;;;19.28;47.40
35649;BME280;21768;48.562;13.414;2022-09-20T11:27:24;97651.50;;;21.91;42.29
35649;BME280;21768;48.562;13.414;2022-09-20T11:30:00;97638.06;;;23.64;39.90
35649;BME280;21768;48.562;13.414;2022-09-20T11:33:05;97645.06;;;26.58;34.68
35649;BME280;21768;48.562;13.414;2022-09-20T11:35:41;97645.22;;;26.89;33.15
35649;BME280;21768;48.562;13.414;2022-09-20T11:41:25;97642.09;;;28.45;28.69
35649;BME280;21768;48.562;13.414;2022-09-20T11:43:53;97633.44;;;27.94;28.28
35649;BME280;21768;48.562;13.414;2022-09-20T11:46:24;97637.91;;;26.21;30.84
35649;BME280;21768;48.562;13.414;2022-09-20T11:51:44;97639.16;;;22.49;36.90
35649;BME280;21768;48.562;13.414;2022-09-20T11:54:17;97640.75;;;21.10;39.65
35649;BME280;21768;48.562;13.414;2022-09-20T11:56:51;97635.25;;;20.11;40.78
35649;BME280;21768;48.562;13.414;2022-09-20T11:59:38;97633.16;;;19.23;41.57
35649;BME280;21768;48.562;13.414;2022-09-20T12:04:49;97639.25;;;18.58;43.78
35649;BME280;21768;48.562;13.414;2022-09-20T12:07:23;97634.84;;;18.99;42.41
35649;BME280;21768;48.562;13.414;2022-09-20T12:09:59;97646.19;;;18.83;44.03
35649;BME280;21768;48.562;13.414;2022-09-20T12:15:06;97684.84;;;17.44;45.81
35649;BME280;21768;48.562;13.414;2022-09-20T12:28:39;97671.75;;;14.42;56.15
35649;BME280;21768;48.562;13.414;2022-09-20T12:36:43;97654.25;;;14.46;56.79
35649;BME280;21768;48.562;13.414;2022-09-20T12:41:46;97660.00;;;14.91;56.24
35649;BME280;21768;48.562;13.414;2022-09-20T12:44:31;97647.13;;;14.88;57.39
35649;BME280;21768;48.562;13.414;2022-09-20T12:49:32;97661.19;;;14.97;57.65
35649;BME280;21768;48.562;13.414;2022-09-20T13:08:28;97648.53;;;15.99;57.94
35649;BME280;21768;48.562;13.414;2022-09-20T13:11:07;97649.09;;;16.12;55.99
35649;BME280;21768;48.562;13.414;2022-09-20T13:19:09;97646.16;;;16.57;54.38
35649;BME280;21768;48.562;13.414;2022-09-20T13:21:40;97637.28;;;16.67;56.37
35649;BME280;21768;48.562;13.414;2022-09-20T13:24:15;97636.91;;;16.96;53.54
35649;BME280;21768;48.562;13.414;2022-09-20T13:26:46;97646.22;;;16.96;53.32
35649;BME280;21768;48.562;13.414;2022-09-20T13:29:43;97640.91;;;17.11;51.98
35649;BME280;21768;48.562;13.414;2022-09-20T13:32:26;97639.50;;;17.17;52.32
35649;BME280;21768;48.562;13.414;2022-09-20T13:35:13;97642.72;;;16.94;51.18
35649;BME280;21768;48.562;13.414;2022-09-20T13:40:39;97636.16;;;16.99;51.80
35649;BME280;21768;48.562;13.414;2022-09-20T13:45:57;97639.84;;;17.25;50.45
35649;BME280;21768;48.562;13.414;2022-09-20T13:48:27;97636.25;;;17.41;49.24
35649;BME280;21768;48.562;13.414;2022-09-20T13:50:55;97644.59;;;17.57;48.11
35649;BME280;21768;48.562;13.414;2022-09-20T13:53:22;97639.16;;;17.69;48.99
35649;BME280;21768;48.562;13.414;2022-09-20T13:55:49;97641.59;;;17.87;47.50
35649;BME280;21768;48.562;13.414;2022-09-20T13:58:25;97647.03;;;18.17;47.24
35649;BME280;21768;48.562;13.414;2022-09-20T14:00:58;97650.81;;;18.04;46.25
35649;BME280;21768;48.562;13.414;2022-09-20T14:03:26;97648.81;;;17.76;47.95
35649;BME280;21768;48.562;13.414;2022-09-20T14:05:54;97650.06;;;17.46;46.82
35649;BME280;21768;48.562;13.414;2022-09-20T14:08:31;97655.34;;;17.29;47.78
35649;BME280;21768;48.562;13.414;2022-09-20T14:11:26;97657.75;;;17.26;48.80
35649;BME280;21768;48.562;13.414;2022-09-20T14:13:54;97646.28;;;17.17;49.30
35649;BME280;21768;48.562;13.414;2022-09-20T14:16:23;97660.25;;;17.25;49.61
35649;BME280;21768;48.562;13.414;2022-09-20T14:18:49;97660.41;;;17.49;49.65
35649;BME280;21768;48.562;13.414;2022-09-20T14:21:26;97663.88;;;17.70;47.73
35649;BME280;21768;48.562;13.414;2022-09-20T14:24:05;97665.31;;;18.05;47.41
35649;BME280;21768;48.562;13.414;2022-09-20T14:26:35;97666.63;;;17.95;47.64
35649;BME280;21768;48.562;13.414;2022-09-20T14:32:33;97668.88;;;17.09;49.35
35649;BME280;21768;48.562;13.414;2022-09-20T14:35:16;97675.53;;;16.86;49.37
35649;BME280;21768;48.562;13.414;2022-09-20T14:37:48;97671.19;;;16.66;49.76
35649;BME280;21768;48.562;13.414;2022-09-20T14:42:50;97675.16;;;16.24;52.25
35649;BME280;21768;48.562;13.414;2022-09-20T14:45:23;97680.47;;;16.11;52.08
35649;BME280;21768;48.562;13.414;2022-09-20T14:50:26;97667.25;;;21.09;43.34
35649;BME280;21768;48.562;13.414;2022-09-20T14:55:30;97667.41;;;24.82;34.88
35649;BME280;21768;48.562;13.414;2022-09-20T14:58:11;97666.88;;;23.90;35.15
35649;BME280;21768;48.562;13.414;2022-09-20T15:00:54;97658.13;;;24.33;35.64
35649;BME280;21768;48.562;13.414;2022-09-20T15:03:52;97661.28;;;23.20;37.32
35649;BME280;21768;48.562;13.414;2022-09-20T15:06:18;97669.16;;;22.48;36.50
35649;BME280;21768;48.562;13.414;2022-09-20T15:08:44;97667.53;;;23.80;36.03
35649;BME280;21768;48.562;13.414;2022-09-20T15:23:03;97668.09;;;26.26;32.71
35649;BME280;21768;48.562;13.414;2022-09-20T15:25:29;97676.19;;;26.67;32.13
35649;BME280;21768;48.562;13.414;2022-09-20T15:27:54;97676.38;;;26.99;32.48
35649;BME280;21768;48.562;13.414;2022-09-20T15:30:21;97672.66;;;26.55;31.60
35649;BME280;21768;48.562;13.414;2022-09-20T15:32:47;97666.72;;;25.65;32.41
35649;BME280;21768;48.562;13.414;2022-09-20T15:35:12;97670.19;;;23.37;35.09
35649;BME280;21768;48.562;13.414;2022-09-20T15:37:38;97672.44;;;21.41;37.81
35649;BME280;21768;48.562;13.414;2022-09-20T15:40:05;97683.69;;;20.03;41.40
35649;BME280;21768;48.562;13.414;2022-09-20T15:42:32;97687.94;;;19.06;43.10
35649;BME280;21768;48.562;13.414;2022-09-20T15:45:04;97679.97;;;18.31;44.42
35649;BME280;21768;48.562;13.414;2022-09-20T15:47:30;97684.56;;;17.76;45.53
35649;BME280;21768;48.562;13.414;2022-09-20T15:49:55;97687.63;;;17.29;46.98
35649;BME280;21768;48.562;13.414;2022-09-20T15:52:24;97689.94;;;16.86;47.93
35649;BME280;21768;48.562;13.414;2022-09-20T15:54:50;97694.22;;;16.50;49.32
35649;BME280;21768;48.562;13.414;2022-09-20T15:57:16;97688.63;;;16.21;49.66
35649;BME280;21768;48.562;13.414;2022-09-20T15:59:41;97688.81;;;15.90;50.51
35649;BME280;21768;48.562;13.414;2022-09-20T16:02:08;97696.03;;;15.65;51.21
35649;BME280;21768;48.562;13.414;2022-09-20T16:04:33;97704.31;;;15.45;52.08
35649;BME280;21768;48.562;13.414;2022-09-20T16:07:00;97697.50;;;15.27;52.83
35649;BME280;21768;48.562;13.414;2022-09-20T16:09:36;97701.31;;;15.03;53.55
35649;BME280;21768;48.562;13.414;2022-09-20T16:12:03;97704.31;;;14.80;54.32
35649;BME280;21768;48.562;13.414;2022-09-20T16:14:29;97710.91;;;14.61;55.06
35649;BME280;21768;48.562;13.414;2022-09-20T16:16:55;97705.19;;;14.49;56.31
35649;BME280;21768;48.562;13.414;2022-09-20T16:22:42;97702.25;;;14.27;56.97
35649;BME280;21768;48.562;13.414;2022-09-20T16:25:08;97707.31;;;14.12;57.40
35649;BME280;21768;48.562;13.414;2022-09-20T16:27:33;97710.84;;;14.00;57.95
35649;BME280;21768;48.562;13.414;2022-09-20T16:30:00;97712.59;;;13.86;58.81
35649;BME280;21768;48.562;13.414;2022-09-20T16:32:26;97713.91;;;13.79;58.96
35649;BME280;21768;48.562;13.414;2022-09-20T16:34:51;97728.78;;;13.73;59.38
35649;BME280;21768;48.562;13.414;2022-09-20T16:37:19;97731.31;;;13.58;59.91
35649;BME280;21768;48.562;13.414;2022-09-20T16:39:44;97741.97;;;13.53;59.88
35649;BME280;21768;48.562;13.414;2022-09-20T16:42:10;97737.03;;;13.41;60.43
35649;BME280;21768;48.562;13.414;2022-09-20T16:44:39;97737.09;;;13.28;61.28
35649;BME280;21768;48.562;13.414;2022-09-20T16:47:09;97738.38;;;13.21;61.30
35649;BME280;21768;48.562;13.414;2022-09-20T16:49:35;97742.56;;;13.21;61.32
35649;BME280;21768;48.562;13.414;2022-09-20T16:52:03;97736.34;;;13.16;61.65
35649;BME280;21768;48.562;13.414;2022-09-20T16:54:29;97749.34;;;13.07;62.02
35649;BME280;21768;48.562;13.414;2022-09-20T16:56:54;97747.19;;;13.00;62.22
35649;BME280;21768;48.562;13.414;2022-09-20T16:59:20;97750.31;;;12.96;62.57
35649;BME280;21768;48.562;13.414;2022-09-20T17:01:46;97743.31;;;12.92;62.55
35649;BME280;21768;48.562;13.414;2022-09-20T17:04:12;97743.75;;;12.85;62.54
35649;BME280;21768;48.562;13.414;2022-09-20T17:06:39;97751.94;;;12.81;62.91
35649;BME280;21768;48.562;13.414;2022-09-20T17:09:07;97758.56;;;12.79;62.87
35649;BME280;21768;48.562;13.414;2022-09-20T17:11:35;97764.28;;;12.76;62.83
35649;BME280;21768;48.562;13.414;2022-09-20T17:14:02;97763.41;;;12.76;63.00
35649;BME280;21768;48.562;13.414;2022-09-20T17:16:32;97762.94;;;12.68;63.24
35649;BME280;21768;48.562;13.414;2022-09-20T17:19:06;97771.81;;;12.62;63.55
35649;BME280;21768;48.562;13.414;2022-09-20T17:21:35;97779.13;;;12.57;63.75
35649;BME280;21768;48.562;13.414;2022-09-20T17:24:02;97781.34;;;12.52;63.79
35649;BME280;21768;48.562;13.414;2022-09-20T17:28:56;97791.56;;;12.41;64.02
35649;BME280;21768;48.562;13.414;2022-09-20T17:31:24;97797.81;;;12.33;64.47
35649;BME280;21768;48.562;13.414;2022-09-20T17:33:55;97804.69;;;12.22;64.78
35649;BME280;21768;48.562;13.414;2022-09-20T17:36:26;97812.84;;;12.18;65.00
35649;BME280;21768;48.562;13.414;2022-09-20T17:38:53;97816.84;;;12.14;65.61
35649;BME280;21768;48.562;13.414;2022-09-20T17:41:20;97813.25;;;12.11;65.88
35649;BME280;21768;48.562;13.414;2022-09-20T17:43:46;97818.88;;;12.07;66.10
35649;BME280;21768;48.562;13.414;2022-09-20T17:46:17;97828.78;;;12.04;66.47
35649;BME280;21768;48.562;13.414;2022-09-20T17:48:53;97829.38;;;12.00;66.21
35649;BME280;21768;48.562;13.414;2022-09-20T17:51:24;97826.63;;;11.97;66.43
35649;BME280;21768;48.562;13.414;2022-09-20T17:53:50;97830.59;;;11.93;66.58
35649;BME280;21768;48.562;13.414;2022-09-20T17:56:16;97837.88;;;11.88;66.78
35649;BME280;21768;48.562;13.414;2022-09-20T17:58:42;97841.00;;;11.84;67.10
35649;BME280;21768;48.562;13.414;2022-09-20T18:01:14;97843.88;;;11.77;67.37
35649;BME280;21768;48.562;13.414;2022-09-20T18:03:45;97844.97;;;11.69;67.63
35649;BME280;21768;48.562;13.414;2022-09-20T18:08:39;97845.50;;;11.52;67.75
35649;BME280;21768;48.562;13.414;2022-09-20T18:11:05;97849.13;;;11.44;67.96
35649;BME280;21768;48.562;13.414;2022-09-20T18:13:31;97853.78;;;11.38;68.20
35649;BME280;21768;48.562;13.414;2022-09-20T18:15:56;97850.84;;;11.32;68.28
35649;BME280;21768;48.562;13.414;2022-09-20T18:18:23;97856.34;;;11.26;68.27
35649;BME280;21768;48.562;13.414;2022-09-20T18:20:48;97861.28;;;11.24;68.31